sensor_id;sensor_type;location;lat;lon;timestamp;pressure;altitude;pressure_sealevel;temperature;humidity
46464;BME280;32161;48.148;-1.554;2022-09-21T00:00:49;101966.94;;;13.61;82.21
46464;BME280;32161;48.148;-1.554;2022-09-21T00:03:18;101962.75;;;13.58;82.19
46464;BME280;32161;48.148;-1.554;2022-09-21T00:05:46;101955.63;;;13.57;82.24
46464;BME280;32161;48.148;-1.554;2022-09-21T00:08:14;101962.34;;;13.55;82.24
46464;BME280;32161;48.148;-1.554;2022-09-21T00:10:41;101959.88;;;13.47;82.29
46464;BME280;32161;48.148;-1.554;2022-09-21T00:13:11;101953.59;;;13.46;82.10
46464;BME280;32161;48.148;-1.554;2022-09-21T00:15:39;101958.41;;;13.44;82.67
46464;BME280;32161;48.148;-1.554;2022-09-21T00:18:08;101956.50;;;13.44;83.04
46464;BME280;32161;48.148;-1.554;2022-09-21T00:20:41;101958.25;;;13.39;82.76
46464;BME280;32161;48.148;-1.554;2022-09-21T00:23:09;101958.91;;;13.34;82.75
46464;BME280;32161;48.148;-1.554;2022-09-21T00:25:37;101962.91;;;13.32;83.30
46464;BME280;32161;48.148;-1.554;2022-09-21T00:28:04;101959.09;;;13.33;83.71
46464;BME280;32161;48.148;-1.554;2022-09-21T00:30:32;101954.88;;;13.37;83.55
46464;BME280;32161;48.148;-1.554;2022-09-21T00:32:59;101957.69;;;13.30;84.77
46464;BME280;32161;48.148;-1.554;2022-09-21T00:35:27;101958.28;;;13.32;84.52
46464;BME280;32161;48.148;-1.554;2022-09-21T00:38:00;101957.84;;;13.35;83.92
46464;BME280;32161;48.148;-1.554;2022-09-21T00:40:29;101950.25;;;13.37;83.74
46464;BME280;32161;48.148;-1.554;2022-09-21T00:43:11;101957.63;;;13.37;83.76
46464;BME280;32161;48.148;-1.554;2022-09-21T00:45:39;101947.34;;;13.32;83.46
46464;BME280;32161;48.148;-1.554;2022-09-21T00:48:07;101951.16;;;13.31;83.32
46464;BME280;32161;48.148;-1.554;2022-09-21T00:50:35;101956.38;;;13.33;82.89
46464;BME280;32161;48.148;-1.554;2022-09-21T00:53:05;101946.13;;;13.28;82.90
46464;BME280;32161;48.148;-1.554;2022-09-21T00:55:36;101950.75;;;13.28;83.02
46464;BME280;32161;48.148;-1.554;2022-09-21T00:58:12;101957.03;;;13.28;83.49
46464;BME280;32161;48.148;-1.554;2022-09-21T01:00:40;101944.44;;;13.27;84.16
46464;BME280;32161;48.148;-1.554;2022-09-21T01:03:09;101952.84;;;13.26;84.33
46464;BME280;32161;48.148;-1.554;2022-09-21T01:05:37;101947.81;;;13.23;84.14
46464;BME280;32161;48.148;-1.554;2022-09-21T01:08:07;101952.00;;;13.25;84.21
46464;BME280;32161;48.148;-1.554;2022-09-21T01:10:56;101951.16;;;13.31;84.87
46464;BME280;32161;48.148;-1.554;2022-09-21T01:13:33;101954.75;;;13.25;84.49
46464;BME280;32161;48.148;-1.554;2022-09-21T01:16:13;101950.97;;;13.26;84.34
46464;BME280;32161;48.148;-1.554;2022-09-21T01:18:49;101940.66;;;13.28;84.29
46464;BME280;32161;48.148;-1.554;2022-09-21T01:21:20;101952.41;;;13.29;84.79
46464;BME280;32161;48.148;-1.554;2022-09-21T01:24:24;101946.91;;;13.35;84.71
46464;BME280;32161;48.148;-1.554;2022-09-21T01:27:44;101948.84;;;13.28;84.58
46464;BME280;32161;48.148;-1.554;2022-09-21T01:30:19;101949.47;;;13.30;84.80
46464;BME280;32161;48.148;-1.554;2022-09-21T01:32:51;101945.72;;;13.25;84.71
46464;BME280;32161;48.148;-1.554;2022-09-21T01:35:26;101953.91;;;13.25;85.02
46464;BME280;32161;48.148;-1.554;2022-09-21T01:37:58;101944.03;;;13.30;85.06
46464;BME280;32161;48.148;-1.554;2022-09-21T01:40:30;101949.69;;;13.29;84.50
46464;BME280;32161;48.148;-1.554;2022-09-21T01:43:01;101953.25;;;13.29;84.01
46464;BME280;32161;48.148;-1.554;2022-09-21T01:45:34;101954.75;;;13.25;84.15
46464;BME280;32161;48.148;-1.554;2022-09-21T01:48:04;101954.75;;;13.25;83.88
46464;BME280;32161;48.148;-1.554;2022-09-21T01:50:34;101950.34;;;13.24;84.01
46464;BME280;32161;48.148;-1.554;2022-09-21T01:53:05;101949.69;;;13.22;84.39
46464;BME280;32161;48.148;-1.554;2022-09-21T01:55:39;101949.94;;;13.14;84.41
46464;BME280;32161;48.148;-1.554;2022-09-21T01:58:13;101947.19;;;13.14;84.56
46464;BME280;32161;48.148;-1.554;2022-09-21T02:00:47;101943.63;;;13.13;84.44
46464;BME280;32161;48.148;-1.554;2022-09-21T02:03:20;101944.44;;;13.20;84.82
46464;BME280;32161;48.148;-1.554;2022-09-21T02:05:51;101942.16;;;13.17;84.50
46464;BME280;32161;48.148;-1.554;2022-09-21T02:08:19;101939.66;;;13.16;84.36
46464;BME280;32161;48.148;-1.554;2022-09-21T02:10:49;101941.94;;;13.19;84.16
46464;BME280;32161;48.148;-1.554;2022-09-21T02:13:19;101940.47;;;13.16;84.27
46464;BME280;32161;48.148;-1.554;2022-09-21T02:16:12;101934.19;;;13.16;84.13
46464;BME280;32161;48.148;-1.554;2022-09-21T02:18:49;101942.22;;;13.11;84.63
46464;BME280;32161;48.148;-1.554;2022-09-21T02:21:32;101935.69;;;13.12;84.56
46464;BME280;32161;48.148;-1.554;2022-09-21T02:24:09;101939.47;;;13.11;84.62
46464;BME280;32161;48.148;-1.554;2022-09-21T02:26:48;101937.19;;;13.08;84.23
46464;BME280;32161;48.148;-1.554;2022-09-21T02:29:23;101943.06;;;13.05;85.00
46464;BME280;32161;48.148;-1.554;2022-09-21T02:31:56;101937.63;;;12.98;84.88
46464;BME280;32161;48.148;-1.554;2022-09-21T02:34:32;101939.50;;;13.04;84.93
46464;BME280;32161;48.148;-1.554;2022-09-21T02:37:07;101931.09;;;13.06;84.89
46464;BME280;32161;48.148;-1.554;2022-09-21T02:39:46;101935.72;;;13.05;85.51
46464;BME280;32161;48.148;-1.554;2022-09-21T02:42:19;101939.84;;;13.14;85.22
46464;BME280;32161;48.148;-1.554;2022-09-21T02:44:57;101929.59;;;13.10;85.81
46464;BME280;32161;48.148;-1.554;2022-09-21T02:47:32;101937.13;;;13.14;85.44
46464;BME280;32161;48.148;-1.554;2022-09-21T02:50:08;101936.50;;;13.19;85.21
46464;BME280;32161;48.148;-1.554;2022-09-21T02:52:39;101939.41;;;13.24;85.19
46464;BME280;32161;48.148;-1.554;2022-09-21T02:55:10;101937.75;;;13.23;84.64
46464;BME280;32161;48.148;-1.554;2022-09-21T02:57:40;101935.63;;;13.25;85.30
46464;BME280;32161;48.148;-1.554;2022-09-21T03:00:10;101938.56;;;13.30;85.11
46464;BME280;32161;48.148;-1.554;2022-09-21T03:02:42;101939.78;;;13.34;85.39
46464;BME280;32161;48.148;-1.554;2022-09-21T03:05:11;101931.38;;;13.36;84.74
46464;BME280;32161;48.148;-1.554;2022-09-21T03:07:40;101942.69;;;13.39;84.52
46464;BME280;32161;48.148;-1.554;2022-09-21T03:10:08;101935.56;;;13.38;84.29
46464;BME280;32161;48.148;-1.554;2022-09-21T03:12:36;101942.69;;;13.39;84.36
46464;BME280;32161;48.148;-1.554;2022-09-21T03:15:05;101931.78;;;13.39;84.22
46464;BME280;32161;48.148;-1.554;2022-09-21T03:17:32;101935.97;;;13.42;84.11
46464;BME280;32161;48.148;-1.554;2022-09-21T03:20:02;101932.41;;;13.41;83.86
46464;BME280;32161;48.148;-1.554;2022-09-21T03:22:29;101928.41;;;13.37;84.02
46464;BME280;32161;48.148;-1.554;2022-09-21T03:24:57;101925.25;;;13.40;83.89
46464;BME280;32161;48.148;-1.554;2022-09-21T03:27:25;101923.81;;;13.38;83.40
46464;BME280;32161;48.148;-1.554;2022-09-21T03:29:52;101930.94;;;13.39;83.30
46464;BME280;32161;48.148;-1.554;2022-09-21T03:32:20;101923.56;;;13.39;83.33
46464;BME280;32161;48.148;-1.554;2022-09-21T03:34:47;101918.53;;;13.36;83.72
46464;BME280;32161;48.148;-1.554;2022-09-21T03:37:17;101922.94;;;13.37;83.61
46464;BME280;32161;48.148;-1.554;2022-09-21T03:39:44;101920.84;;;13.39;83.57
46464;BME280;32161;48.148;-1.554;2022-09-21T03:42:12;101921.91;;;13.38;83.36
46464;BME280;32161;48.148;-1.554;2022-09-21T03:44:40;101918.53;;;13.36;83.56
46464;BME280;32161;48.148;-1.554;2022-09-21T03:47:08;101907.41;;;13.38;83.27
46464;BME280;32161;48.148;-1.554;2022-09-21T03:49:35;101915.81;;;13.36;83.47
46464;BME280;32161;48.148;-1.554;2022-09-21T03:52:04;101904.50;;;13.33;83.43
46464;BME280;32161;48.148;-1.554;2022-09-21T03:54:33;101914.38;;;13.34;83.60
46464;BME280;32161;48.148;-1.554;2022-09-21T03:57:00;101912.91;;;13.31;83.66
46464;BME280;32161;48.148;-1.554;2022-09-21T03:59:28;101910.19;;;13.31;83.84
46464;BME280;32161;48.148;-1.554;2022-09-21T04:01:55;101916.91;;;13.29;83.75
46464;BME280;32161;48.148;-1.554;2022-09-21T04:04:23;101906.00;;;13.29;83.88
46464;BME280;32161;48.148;-1.554;2022-09-21T04:06:51;101901.59;;;13.28;84.33
46464;BME280;32161;48.148;-1.554;2022-09-21T04:09:19;101910.63;;;13.28;84.27
46464;BME280;32161;48.148;-1.554;2022-09-21T04:11:48;101902.81;;;13.32;83.97
46464;BME280;32161;48.148;-1.554;2022-09-21T04:14:15;101908.31;;;13.25;83.75
46464;BME280;32161;48.148;-1.554;2022-09-21T04:16:43;101899.53;;;13.23;83.80
46464;BME280;32161;48.148;-1.554;2022-09-21T04:19:11;101908.34;;;13.18;84.11
46464;BME280;32161;48.148;-1.554;2022-09-21T04:21:39;101910.22;;;13.18;84.25
46464;BME280;32161;48.148;-1.554;2022-09-21T04:24:06;101911.28;;;13.17;84.46
46464;BME280;32161;48.148;-1.554;2022-09-21T04:26:35;101912.34;;;13.16;84.22
46464;BME280;32161;48.148;-1.554;2022-09-21T04:29:04;101911.72;;;13.14;84.16
46464;BME280;32161;48.148;-1.554;2022-09-21T04:31:32;101910.88;;;13.13;84.13
46464;BME280;32161;48.148;-1.554;2022-09-21T04:34:00;101913.00;;;13.11;84.46
46464;BME280;32161;48.148;-1.554;2022-09-21T04:36:28;101914.44;;;13.14;84.59
46464;BME280;32161;48.148;-1.554;2022-09-21T04:38:59;101919.31;;;13.12;84.58
46464;BME280;32161;48.148;-1.554;2022-09-21T04:41:27;101910.88;;;13.13;84.86
46464;BME280;32161;48.148;-1.554;2022-09-21T04:43:54;101917.00;;;13.09;84.58
46464;BME280;32161;48.148;-1.554;2022-09-21T04:46:23;101918.06;;;13.08;85.13
46464;BME280;32161;48.148;-1.554;2022-09-21T04:48:51;101916.78;;;13.10;84.97
46464;BME280;32161;48.148;-1.554;2022-09-21T04:51:18;101924.59;;;13.07;84.93
46464;BME280;32161;48.148;-1.554;2022-09-21T04:53:46;101918.47;;;13.11;84.62
46464;BME280;32161;48.148;-1.554;2022-09-21T04:56:15;101922.03;;;13.12;84.71
46464;BME280;32161;48.148;-1.554;2022-09-21T04:58:45;101917.19;;;13.14;84.26
46464;BME280;32161;48.148;-1.554;2022-09-21T05:01:13;101909.22;;;13.12;84.17
46464;BME280;32161;48.148;-1.554;2022-09-21T05:03:42;101916.34;;;13.13;84.23
46464;BME280;32161;48.148;-1.554;2022-09-21T05:06:10;101917.00;;;13.09;84.53
46464;BME280;32161;48.148;-1.554;2022-09-21T05:08:38;101916.59;;;13.05;84.35
46464;BME280;32161;48.148;-1.554;2022-09-21T05:11:24;101920.59;;;13.03;84.65
46464;BME280;32161;48.148;-1.554;2022-09-21T05:13:52;101923.56;;;13.01;84.42
46464;BME280;32161;48.148;-1.554;2022-09-21T05:16:20;101920.41;;;12.98;84.21
46464;BME280;32161;48.148;-1.554;2022-09-21T05:18:52;101919.34;;;12.99;84.30
46464;BME280;32161;48.148;-1.554;2022-09-21T05:21:21;101923.38;;;12.96;84.66
46464;BME280;32161;48.148;-1.554;2022-09-21T05:23:49;101914.56;;;12.94;84.60
46464;BME280;32161;48.148;-1.554;2022-09-21T05:26:17;101918.34;;;12.93;84.99
46464;BME280;32161;48.148;-1.554;2022-09-21T05:28:45;101913.72;;;12.93;84.67
46464;BME280;32161;48.148;-1.554;2022-09-21T05:31:29;101918.13;;;12.94;84.55
46464;BME280;32161;48.148;-1.554;2022-09-21T05:34:06;101932.22;;;12.91;84.91
46464;BME280;32161;48.148;-1.554;2022-09-21T05:36:47;101925.50;;;12.87;84.66
46464;BME280;32161;48.148;-1.554;2022-09-21T05:39:16;101922.16;;;12.85;85.18
46464;BME280;32161;48.148;-1.554;2022-09-21T05:41:45;101928.69;;;12.84;85.18
46464;BME280;32161;48.148;-1.554;2022-09-21T05:44:14;101921.09;;;12.86;84.67
46464;BME280;32161;48.148;-1.554;2022-09-21T05:46:47;101934.13;;;12.84;84.38
46464;BME280;32161;48.148;-1.554;2022-09-21T05:49:20;101933.50;;;12.82;84.52
46464;BME280;32161;48.148;-1.554;2022-09-21T05:51:59;101937.50;;;12.80;84.55
46464;BME280;32161;48.148;-1.554;2022-09-21T05:54:41;101927.63;;;12.79;84.79
46464;BME280;32161;48.148;-1.554;2022-09-21T05:57:17;101932.06;;;12.73;84.40
46464;BME280;32161;48.148;-1.554;2022-09-21T06:00:00;101935.00;;;12.71;84.58
46464;BME280;32161;48.148;-1.554;2022-09-21T06:02:56;101936.28;;;12.69;84.74
46464;BME280;32161;48.148;-1.554;2022-09-21T06:05:30;101934.81;;;12.66;84.66
46464;BME280;32161;48.148;-1.554;2022-09-21T06:07:57;101941.53;;;12.64;85.08
46464;BME280;32161;48.148;-1.554;2022-09-21T06:10:25;101934.63;;;12.61;84.95
46464;BME280;32161;48.148;-1.554;2022-09-21T06:12:54;101932.09;;;12.60;84.68
46464;BME280;32161;48.148;-1.554;2022-09-21T06:15:21;101935.88;;;12.59;85.44
46464;BME280;32161;48.148;-1.554;2022-09-21T06:17:49;101927.94;;;12.57;85.27
46464;BME280;32161;48.148;-1.554;2022-09-21T06:20:17;101937.38;;;12.55;85.28
46464;BME280;32161;48.148;-1.554;2022-09-21T06:22:46;101932.16;;;12.53;85.16
46464;BME280;32161;48.148;-1.554;2022-09-21T06:25:13;101932.56;;;12.50;85.46
46464;BME280;32161;48.148;-1.554;2022-09-21T06:27:41;101931.28;;;12.53;85.79
46464;BME280;32161;48.148;-1.554;2022-09-21T06:30:09;101937.59;;;12.53;86.30
46464;BME280;32161;48.148;-1.554;2022-09-21T06:32:37;101931.28;;;12.53;86.28
46464;BME280;32161;48.148;-1.554;2022-09-21T06:35:06;101944.09;;;12.52;86.57
46464;BME280;32161;48.148;-1.554;2022-09-21T06:37:33;101934.66;;;12.55;86.50
46464;BME280;32161;48.148;-1.554;2022-09-21T06:40:06;101936.31;;;12.56;86.47
46464;BME280;32161;48.148;-1.554;2022-09-21T06:42:34;101942.41;;;12.58;86.38
46464;BME280;32161;48.148;-1.554;2022-09-21T06:45:02;101940.09;;;12.61;86.44
46464;BME280;32161;48.148;-1.554;2022-09-21T06:47:32;101946.38;;;12.62;86.34
46464;BME280;32161;48.148;-1.554;2022-09-21T06:49:59;101945.31;;;12.63;86.65
46464;BME280;32161;48.148;-1.554;2022-09-21T06:52:28;101939.63;;;12.64;86.41
46464;BME280;32161;48.148;-1.554;2022-09-21T06:54:55;101939.63;;;12.64;86.63
46464;BME280;32161;48.148;-1.554;2022-09-21T06:57:24;101945.09;;;12.64;86.82
46464;BME280;32161;48.148;-1.554;2022-09-21T06:59:52;101938.81;;;12.64;86.59
46464;BME280;32161;48.148;-1.554;2022-09-21T07:02:19;101938.38;;;12.67;86.36
46464;BME280;32161;48.148;-1.554;2022-09-21T07:04:47;101935.84;;;12.72;86.52
46464;BME280;32161;48.148;-1.554;2022-09-21T07:07:15;101936.69;;;12.73;86.68
46464;BME280;32161;48.148;-1.554;2022-09-21T07:09:42;101929.31;;;12.80;86.33
46464;BME280;32161;48.148;-1.554;2022-09-21T07:12:10;101930.38;;;12.79;86.44
46464;BME280;32161;48.148;-1.554;2022-09-21T07:14:40;101933.09;;;12.79;86.43
46464;BME280;32161;48.148;-1.554;2022-09-21T07:17:09;101929.72;;;12.83;86.87
46464;BME280;32161;48.148;-1.554;2022-09-21T07:19:38;101927.78;;;12.90;86.37
46464;BME280;32161;48.148;-1.554;2022-09-21T07:22:06;101932.41;;;12.97;86.28
46464;BME280;32161;48.148;-1.554;2022-09-21T07:24:33;101922.31;;;12.97;86.17
46464;BME280;32161;48.148;-1.554;2022-09-21T07:27:01;101936.59;;;12.99;86.21
46464;BME280;32161;48.148;-1.554;2022-09-21T07:29:30;101933.22;;;13.04;85.86
46464;BME280;32161;48.148;-1.554;2022-09-21T07:31:58;101929.41;;;13.05;85.85
46464;BME280;32161;48.148;-1.554;2022-09-21T07:34:26;101931.28;;;13.11;85.70
46464;BME280;32161;48.148;-1.554;2022-09-21T07:36:54;101923.88;;;13.18;85.40
46464;BME280;32161;48.148;-1.554;2022-09-21T07:39:21;101920.72;;;13.21;85.28
46464;BME280;32161;48.148;-1.554;2022-09-21T07:41:49;101927.25;;;13.27;85.41
46464;BME280;32161;48.148;-1.554;2022-09-21T07:44:16;101933.09;;;13.30;85.80
46464;BME280;32161;48.148;-1.554;2022-09-21T07:46:47;101931.81;;;13.33;85.91
46464;BME280;32161;48.148;-1.554;2022-09-21T07:49:16;101920.84;;;13.39;85.80
46464;BME280;32161;48.148;-1.554;2022-09-21T07:51:44;101935.13;;;13.41;85.54
46464;BME280;32161;48.148;-1.554;2022-09-21T07:54:12;101922.00;;;13.57;84.94
46464;BME280;32161;48.148;-1.554;2022-09-21T07:56:41;101932.03;;;13.63;84.45
46464;BME280;32161;48.148;-1.554;2022-09-21T07:59:28;101928.22;;;13.64;84.42
46464;BME280;32161;48.148;-1.554;2022-09-21T08:01:58;101922.31;;;13.67;84.61
46464;BME280;32161;48.148;-1.554;2022-09-21T08:04:27;101926.91;;;13.73;84.23
46464;BME280;32161;48.148;-1.554;2022-09-21T08:06:55;101918.28;;;13.76;84.64
46464;BME280;32161;48.148;-1.554;2022-09-21T08:09:22;101922.84;;;13.82;84.53
46464;BME280;32161;48.148;-1.554;2022-09-21T08:11:51;101932.22;;;13.93;84.51
46464;BME280;32161;48.148;-1.554;2022-09-21T08:14:20;101920.75;;;14.03;84.26
46464;BME280;32161;48.148;-1.554;2022-09-21T08:16:48;101913.97;;;14.12;83.54
46464;BME280;32161;48.148;-1.554;2022-09-21T08:19:16;101923.53;;;14.21;82.78
46464;BME280;32161;48.148;-1.554;2022-09-21T08:21:47;101923.78;;;14.38;82.91
46464;BME280;32161;48.148;-1.554;2022-09-21T08:24:16;101923.13;;;14.43;83.16
46464;BME280;32161;48.148;-1.554;2022-09-21T08:26:45;101932.28;;;14.48;82.91
46464;BME280;32161;48.148;-1.554;2022-09-21T08:29:13;101933.47;;;14.59;81.92
46464;BME280;32161;48.148;-1.554;2022-09-21T08:31:40;101933.41;;;14.65;81.25
46464;BME280;32161;48.148;-1.554;2022-09-21T08:34:08;101934.38;;;14.71;81.01
46464;BME280;32161;48.148;-1.554;2022-09-21T08:36:36;101934.06;;;14.79;80.81
46464;BME280;32161;48.148;-1.554;2022-09-21T08:39:07;101933.16;;;14.85;80.72
46464;BME280;32161;48.148;-1.554;2022-09-21T08:41:53;101935.13;;;14.97;81.03
46464;BME280;32161;48.148;-1.554;2022-09-21T08:44:30;101932.25;;;15.22;78.72
46464;BME280;32161;48.148;-1.554;2022-09-21T08:47:05;101928.09;;;15.19;79.10
46464;BME280;32161;48.148;-1.554;2022-09-21T08:49:38;101932.88;;;15.24;79.27
46464;BME280;32161;48.148;-1.554;2022-09-21T08:52:14;101932.44;;;15.38;78.21
46464;BME280;32161;48.148;-1.554;2022-09-21T08:54:50;101935.97;;;15.57;76.60
46464;BME280;32161;48.148;-1.554;2022-09-21T08:57:20;101942.47;;;15.75;76.70
46464;BME280;32161;48.148;-1.554;2022-09-21T08:59:49;101942.09;;;15.83;76.23
46464;BME280;32161;48.148;-1.554;2022-09-21T09:03:01;101936.28;;;15.91;74.98
46464;BME280;32161;48.148;-1.554;2022-09-21T09:05:41;101937.25;;;15.97;73.99
46464;BME280;32161;48.148;-1.554;2022-09-21T09:08:44;101949.06;;;16.09;74.74
46464;BME280;32161;48.148;-1.554;2022-09-21T09:11:32;101947.88;;;16.17;74.29
46464;BME280;32161;48.148;-1.554;2022-09-21T09:14:26;101940.13;;;16.25;74.33
46464;BME280;32161;48.148;-1.554;2022-09-21T09:17:20;101941.31;;;16.53;70.72
46464;BME280;32161;48.148;-1.554;2022-09-21T09:19:57;101945.44;;;16.67;71.57
46464;BME280;32161;48.148;-1.554;2022-09-21T09:22:32;101946.28;;;16.91;69.97
46464;BME280;32161;48.148;-1.554;2022-09-21T09:25:11;101954.03;;;16.82;70.25
46464;BME280;32161;48.148;-1.554;2022-09-21T09:27:44;101946.75;;;16.88;70.31
46464;BME280;32161;48.148;-1.554;2022-09-21T09:30:18;101955.13;;;16.81;70.06
46464;BME280;32161;48.148;-1.554;2022-09-21T09:32:53;101949.84;;;16.92;69.77
46464;BME280;32161;48.148;-1.554;2022-09-21T09:35:29;101951.59;;;16.98;69.26
46464;BME280;32161;48.148;-1.554;2022-09-21T09:38:08;101944.38;;;17.20;67.98
46464;BME280;32161;48.148;-1.554;2022-09-21T09:41:01;101940.44;;;17.16;68.04
46464;BME280;32161;48.148;-1.554;2022-09-21T09:43:46;101953.38;;;17.32;66.81
46464;BME280;32161;48.148;-1.554;2022-09-21T09:46:28;101956.47;;;17.36;65.87
46464;BME280;32161;48.148;-1.554;2022-09-21T09:49:18;101959.66;;;17.45;65.95
46464;BME280;32161;48.148;-1.554;2022-09-21T09:51:51;101947.97;;;17.66;64.39
46464;BME280;32161;48.148;-1.554;2022-09-21T09:54:23;101952.22;;;17.57;65.02
46464;BME280;32161;48.148;-1.554;2022-09-21T09:56:51;101946.13;;;17.55;65.55
46464;BME280;32161;48.148;-1.554;2022-09-21T09:59:27;101945.28;;;17.71;64.69
46464;BME280;32161;48.148;-1.554;2022-09-21T10:02:02;101941.09;;;17.80;63.66
46464;BME280;32161;48.148;-1.554;2022-09-21T10:04:31;101942.75;;;17.98;63.40
46464;BME280;32161;48.148;-1.554;2022-09-21T10:07:00;101937.69;;;18.07;61.91
46464;BME280;32161;48.148;-1.554;2022-09-21T10:09:31;101945.41;;;18.27;61.10
46464;BME280;32161;48.148;-1.554;2022-09-21T10:12:00;101943.91;;;18.19;61.66
46464;BME280;32161;48.148;-1.554;2022-09-21T10:14:34;101943.66;;;18.21;62.95
46464;BME280;32161;48.148;-1.554;2022-09-21T10:17:06;101945.25;;;18.34;62.92
46464;BME280;32161;48.148;-1.554;2022-09-21T10:19:34;101940.31;;;18.36;62.32
46464;BME280;32161;48.148;-1.554;2022-09-21T10:22:04;101932.75;;;18.48;60.09
46464;BME280;32161;48.148;-1.554;2022-09-21T10:24:35;101928.59;;;18.84;57.77
46464;BME280;32161;48.148;-1.554;2022-09-21T10:27:06;101923.59;;;18.81;58.47
46464;BME280;32161;48.148;-1.554;2022-09-21T10:29:42;101925.16;;;18.72;58.78
46464;BME280;32161;48.148;-1.554;2022-09-21T10:32:23;101919.41;;;18.78;58.41
46464;BME280;32161;48.148;-1.554;2022-09-21T10:35:15;101926.81;;;18.73;57.86
46464;BME280;32161;48.148;-1.554;2022-09-21T10:37:46;101917.13;;;18.92;57.31
46464;BME280;32161;48.148;-1.554;2022-09-21T10:40:27;101911.34;;;18.94;58.06
46464;BME280;32161;48.148;-1.554;2022-09-21T10:42:57;101913.78;;;18.90;59.07
46464;BME280;32161;48.148;-1.554;2022-09-21T10:45:28;101909.09;;;18.91;58.94
46464;BME280;32161;48.148;-1.554;2022-09-21T10:48:05;101916.38;;;19.02;59.53
46464;BME280;32161;48.148;-1.554;2022-09-21T10:50:39;101911.72;;;19.02;56.46
46464;BME280;32161;48.148;-1.554;2022-09-21T10:53:22;101911.78;;;19.08;57.34
46464;BME280;32161;48.148;-1.554;2022-09-21T10:55:57;101908.69;;;19.26;56.26
46464;BME280;32161;48.148;-1.554;2022-09-21T10:58:26;101903.88;;;19.16;57.43
46464;BME280;32161;48.148;-1.554;2022-09-21T11:01:09;101900.84;;;19.18;57.48
46464;BME280;32161;48.148;-1.554;2022-09-21T11:03:47;101906.16;;;19.24;56.87
46464;BME280;32161;48.148;-1.554;2022-09-21T11:06:21;101905.34;;;19.24;57.76
46464;BME280;32161;48.148;-1.554;2022-09-21T11:08:55;101894.19;;;19.41;56.24
46464;BME280;32161;48.148;-1.554;2022-09-21T11:11:46;101892.66;;;19.55;56.13
46464;BME280;32161;48.148;-1.554;2022-09-21T11:14:26;101887.81;;;19.62;56.64
46464;BME280;32161;48.148;-1.554;2022-09-21T11:17:08;101884.91;;;19.79;56.39
46464;BME280;32161;48.148;-1.554;2022-09-21T11:19:43;101880.03;;;19.91;55.46
46464;BME280;32161;48.148;-1.554;2022-09-21T11:22:21;101877.91;;;20.04;55.38
46464;BME280;32161;48.148;-1.554;2022-09-21T11:24:58;101878.00;;;20.19;53.62
46464;BME280;32161;48.148;-1.554;2022-09-21T11:27:33;101872.22;;;20.20;52.25
46464;BME280;32161;48.148;-1.554;2022-09-21T11:30:09;101872.63;;;20.02;53.17
46464;BME280;32161;48.148;-1.554;2022-09-21T11:32:58;101869.03;;;19.96;54.74
46464;BME280;32161;48.148;-1.554;2022-09-21T11:35:41;101863.50;;;19.96;54.72
46464;BME280;32161;48.148;-1.554;2022-09-21T11:38:24;101861.38;;;20.09;54.47
46464;BME280;32161;48.148;-1.554;2022-09-21T11:41:16;101854.50;;;20.11;54.40
46464;BME280;32161;48.148;-1.554;2022-09-21T11:44:11;101847.94;;;20.28;54.15
46464;BME280;32161;48.148;-1.554;2022-09-21T11:46:49;101847.97;;;20.33;53.32
46464;BME280;32161;48.148;-1.554;2022-09-21T11:49:43;101839.69;;;20.33;54.40
46464;BME280;32161;48.148;-1.554;2022-09-21T11:52:29;101843.56;;;20.32;54.23
46464;BME280;32161;48.148;-1.554;2022-09-21T11:55:25;101834.44;;;20.36;54.42
46464;BME280;32161;48.148;-1.554;2022-09-21T11:58:05;101830.88;;;20.41;53.31
46464;BME280;32161;48.148;-1.554;2022-09-21T12:00:46;101837.50;;;20.35;52.86
46464;BME280;32161;48.148;-1.554;2022-09-21T12:03:54;101834.59;;;20.57;52.70
46464;BME280;32161;48.148;-1.554;2022-09-21T12:06:42;101834.28;;;20.53;52.46
46464;BME280;32161;48.148;-1.554;2022-09-21T12:12:37;101828.25;;;20.66;53.84
46464;BME280;32161;48.148;-1.554;2022-09-21T12:15:16;101833.25;;;20.69;52.97
46464;BME280;32161;48.148;-1.554;2022-09-21T12:17:56;101826.59;;;20.70;53.67
46464;BME280;32161;48.148;-1.554;2022-09-21T12:20:32;101818.91;;;20.88;52.11
46464;BME280;32161;48.148;-1.554;2022-09-21T12:23:11;101820.31;;;20.95;50.74
46464;BME280;32161;48.148;-1.554;2022-09-21T12:25:53;101818.66;;;21.05;49.72
46464;BME280;32161;48.148;-1.554;2022-09-21T12:28:27;101818.94;;;21.08;49.91
46464;BME280;32161;48.148;-1.554;2022-09-21T12:30:59;101812.56;;;20.92;50.74
46464;BME280;32161;48.148;-1.554;2022-09-21T12:33:36;101806.47;;;20.90;52.14
46464;BME280;32161;48.148;-1.554;2022-09-21T12:36:11;101802.38;;;21.03;50.87
46464;BME280;32161;48.148;-1.554;2022-09-21T12:38:49;101801.50;;;20.97;51.18
46464;BME280;32161;48.148;-1.554;2022-09-21T12:41:27;101807.34;;;21.11;50.33
46464;BME280;32161;48.148;-1.554;2022-09-21T12:44:04;101800.69;;;21.17;50.93
46464;BME280;32161;48.148;-1.554;2022-09-21T12:46:36;101792.41;;;21.12;51.89
46464;BME280;32161;48.148;-1.554;2022-09-21T12:49:14;101797.13;;;21.22;50.98
46464;BME280;32161;48.148;-1.554;2022-09-21T12:51:47;101800.16;;;21.26;51.03
46464;BME280;32161;48.148;-1.554;2022-09-21T12:54:27;101795.75;;;21.40;49.17
46464;BME280;32161;48.148;-1.554;2022-09-21T12:57:02;101787.19;;;21.36;48.80
46464;BME280;32161;48.148;-1.554;2022-09-21T12:59:37;101789.66;;;21.33;49.79
46464;BME280;32161;48.148;-1.554;2022-09-21T13:02:18;101782.47;;;21.37;50.49
46464;BME280;32161;48.148;-1.554;2022-09-21T13:05:05;101776.06;;;21.67;48.69
46464;BME280;32161;48.148;-1.554;2022-09-21T13:08:04;101781.63;;;21.62;50.15
46464;BME280;32161;48.148;-1.554;2022-09-21T13:10:44;101768.34;;;21.59;49.36
46464;BME280;32161;48.148;-1.554;2022-09-21T13:13:27;101761.47;;;21.46;49.46
46464;BME280;32161;48.148;-1.554;2022-09-21T13:15:57;101764.22;;;21.56;48.03